sensor_id;sensor_type;location;lat;lon;timestamp;P1;durP1;ratioP1;P2;durP2;ratioP2
4527;SDS011;62320;51.520;6.818;2023-05-28T00:03:44;10.65;;;3.80;;
4527;SDS011;62320;51.520;6.818;2023-05-28T00:13:46;11.20;;;3.93;;
4527;SDS011;62320;51.520;6.818;2023-05-28T00:23:48;8.53;;;3.63;;
4527;SDS011;62320;51.520;6.818;2023-05-28T00:33:49;9.32;;;3.75;;
4527;SDS011;62320;51.520;6.818;2023-05-28T00:43:51;12.03;;;4.50;;
4527;SDS011;62320;51.520;6.818;2023-05-28T00:53:53;10.63;;;4.20;;
4527;SDS011;62320;51.520;6.818;2023-05-28T01:03:55;9.13;;;3.90;;
4527;SDS011;62320;51.520;6.818;2023-05-28T01:13:57;10.50;;;3.73;;
4527;SDS011;62320;51.520;6.818;2023-05-28T01:23:59;10.70;;;4.10;;
4527;SDS011;62320;51.520;6.818;2023-05-28T01:34:02;11.18;;;4.28;;
4527;SDS011;62320;51.520;6.818;2023-05-28T01:44:04;12.48;;;3.97;;
4527;SDS011;62320;51.520;6.818;2023-05-28T01:54:08;10.20;;;4.17;;
4527;SDS011;62320;51.520;6.818;2023-05-28T02:15:25;10.27;;;3.95;;
4527;SDS011;62320;51.520;6.818;2023-05-28T02:25:27;11.80;;;4.40;;
4527;SDS011;62320;51.520;6.818;2023-05-28T02:35:28;10.80;;;3.93;;
4527;SDS011;62320;51.520;6.818;2023-05-28T02:45:30;10.98;;;4.30;;
4527;SDS011;62320;51.520;6.818;2023-05-28T02:55:31;9.67;;;4.60;;
4527;SDS011;62320;51.520;6.818;2023-05-28T03:05:33;10.53;;;4.70;;
4527;SDS011;62320;51.520;6.818;2023-05-28T03:15:35;12.57;;;4.90;;
4527;SDS011;62320;51.520;6.818;2023-05-28T03:25:37;11.85;;;5.30;;
4527;SDS011;62320;51.520;6.818;2023-05-28T03:35:38;12.80;;;5.13;;
4527;SDS011;62320;51.520;6.818;2023-05-28T03:45:40;14.30;;;5.17;;
4527;SDS011;62320;51.520;6.818;2023-05-28T03:55:41;10.60;;;4.65;;
4527;SDS011;62320;51.520;6.818;2023-05-28T04:05:43;12.27;;;5.83;;
4527;SDS011;62320;51.520;6.818;2023-05-28T04:15:45;13.87;;;5.17;;
4527;SDS011;62320;51.520;6.818;2023-05-28T04:25:46;12.25;;;4.97;;
4527;SDS011;62320;51.520;6.818;2023-05-28T04:35:48;13.33;;;5.27;;
4527;SDS011;62320;51.520;6.818;2023-05-28T04:45:50;14.20;;;5.27;;
4527;SDS011;62320;51.520;6.818;2023-05-28T04:55:55;14.75;;;5.80;;
4527;SDS011;62320;51.520;6.818;2023-05-28T05:05:56;16.05;;;5.78;;
4527;SDS011;62320;51.520;6.818;2023-05-28T05:15:58;15.27;;;6.33;;
4527;SDS011;62320;51.520;6.818;2023-05-28T05:25:59;11.50;;;5.10;;
4527;SDS011;62320;51.520;6.818;2023-05-28T05:36:01;11.45;;;4.93;;
4527;SDS011;62320;51.520;6.818;2023-05-28T05:46:03;13.83;;;5.87;;
4527;SDS011;62320;51.520;6.818;2023-05-28T05:56:04;12.53;;;5.33;;
4527;SDS011;62320;51.520;6.818;2023-05-28T06:06:06;16.73;;;6.40;;
4527;SDS011;62320;51.520;6.818;2023-05-28T06:16:08;13.80;;;5.50;;
4527;SDS011;62320;51.520;6.818;2023-05-28T06:26:09;12.57;;;5.00;;
4527;SDS011;62320;51.520;6.818;2023-05-28T06:36:11;13.15;;;4.50;;
4527;SDS011;62320;51.520;6.818;2023-05-28T06:46:13;10.83;;;4.93;;
4527;SDS011;62320;51.520;6.818;2023-05-28T06:56:15;11.37;;;4.77;;
4527;SDS011;62320;51.520;6.818;2023-05-28T07:06:16;11.67;;;5.03;;
4527;SDS011;62320;51.520;6.818;2023-05-28T07:16:18;13.50;;;5.50;;
4527;SDS011;62320;51.520;6.818;2023-05-28T07:26:20;8.63;;;3.87;;
4527;SDS011;62320;51.520;6.818;2023-05-28T07:36:21;9.13;;;4.40;;
4527;SDS011;62320;51.520;6.818;2023-05-28T07:46:23;13.02;;;4.20;;
4527;SDS011;62320;51.520;6.818;2023-05-28T07:56:25;9.17;;;3.60;;
4527;SDS011;62320;51.520;6.818;2023-05-28T08:06:27;9.27;;;3.80;;
4527;SDS011;62320;51.520;6.818;2023-05-28T08:16:29;8.45;;;3.47;;
4527;SDS011;62320;51.520;6.818;2023-05-28T08:26:31;9.43;;;3.57;;
4527;SDS011;62320;51.520;6.818;2023-05-28T08:36:32;8.80;;;3.37;;
4527;SDS011;62320;51.520;6.818;2023-05-28T08:46:34;8.37;;;2.77;;
4527;SDS011;62320;51.520;6.818;2023-05-28T08:56:38;11.65;;;3.28;;
4527;SDS011;62320;51.520;6.818;2023-05-28T09:06:41;8.43;;;2.93;;
4527;SDS011;62320;51.520;6.818;2023-05-28T09:16:43;10.73;;;3.27;;
4527;SDS011;62320;51.520;6.818;2023-05-28T09:26:45;11.07;;;4.63;;
4527;SDS011;62320;51.520;6.818;2023-05-28T09:36:50;11.33;;;4.23;;
4527;SDS011;62320;51.520;6.818;2023-05-28T09:46:53;8.13;;;3.10;;
4527;SDS011;62320;51.520;6.818;2023-05-28T09:56:54;10.43;;;3.25;;
4527;SDS011;62320;51.520;6.818;2023-05-28T10:06:59;7.20;;;2.90;;
4527;SDS011;62320;51.520;6.818;2023-05-28T10:17:07;9.40;;;3.43;;
4527;SDS011;62320;51.520;6.818;2023-05-28T10:27:15;7.63;;;3.42;;
4527;SDS011;62320;51.520;6.818;2023-05-28T10:37:22;9.00;;;3.40;;
4527;SDS011;62320;51.520;6.818;2023-05-28T10:47:30;7.27;;;2.73;;
4527;SDS011;62320;51.520;6.818;2023-05-28T10:57:40;10.07;;;3.80;;
4527;SDS011;62320;51.520;6.818;2023-05-28T11:07:45;7.45;;;2.80;;
4527;SDS011;62320;51.520;6.818;2023-05-28T11:17:47;7.57;;;3.10;;
4527;SDS011;62320;51.520;6.818;2023-05-28T11:27:49;10.03;;;2.93;;
4527;SDS011;62320;51.520;6.818;2023-05-28T11:37:52;8.80;;;3.17;;
4527;SDS011;62320;51.520;6.818;2023-05-28T11:47:54;8.00;;;3.03;;
4527;SDS011;62320;51.520;6.818;2023-05-28T11:57:56;6.50;;;2.20;;
4527;SDS011;62320;51.520;6.818;2023-05-28T12:07:58;8.07;;;2.90;;
4527;SDS011;62320;51.520;6.818;2023-05-28T12:18:00;6.07;;;2.30;;
4527;SDS011;62320;51.520;6.818;2023-05-28T12:28:04;7.43;;;3.20;;
4527;SDS011;62320;51.520;6.818;2023-05-28T12:38:06;7.53;;;2.50;;
4527;SDS011;62320;51.520;6.818;2023-05-28T12:48:07;6.70;;;2.70;;
4527;SDS011;62320;51.520;6.818;2023-05-28T12:58:10;8.80;;;3.40;;
4527;SDS011;62320;51.520;6.818;2023-05-28T13:08:11;7.77;;;3.00;;
4527;SDS011;62320;51.520;6.818;2023-05-28T13:18:13;7.20;;;2.88;;
4527;SDS011;62320;51.520;6.818;2023-05-28T13:28:14;7.10;;;2.50;;
4527;SDS011;62320;51.520;6.818;2023-05-28T13:38:16;6.00;;;2.27;;
4527;SDS011;62320;51.520;6.818;2023-05-28T13:48:18;7.40;;;2.92;;
4527;SDS011;62320;51.520;6.818;2023-05-28T13:58:23;7.70;;;2.97;;
4527;SDS011;62320;51.520;6.818;2023-05-28T14:08:25;8.50;;;3.60;;
4527;SDS011;62320;51.520;6.818;2023-05-28T14:18:27;8.27;;;3.40;;
4527;SDS011;62320;51.520;6.818;2023-05-28T14:28:28;9.23;;;3.58;;
4527;SDS011;62320;51.520;6.818;2023-05-28T14:38:30;10.33;;;4.30;;
4527;SDS011;62320;51.520;6.818;2023-05-28T14:48:32;7.70;;;3.27;;
4527;SDS011;62320;51.520;6.818;2023-05-28T14:58:34;9.75;;;4.47;;
4527;SDS011;62320;51.520;6.818;2023-05-28T15:08:36;6.77;;;2.60;;
4527;SDS011;62320;51.520;6.818;2023-05-28T15:18:38;8.10;;;2.73;;
4527;SDS011;62320;51.520;6.818;2023-05-28T15:28:39;12.38;;;3.53;;
4527;SDS011;62320;51.520;6.818;2023-05-28T15:38:41;8.73;;;4.23;;
4527;SDS011;62320;51.520;6.818;2023-05-28T15:48:42;11.13;;;5.50;;
4527;SDS011;62320;51.520;6.818;2023-05-28T15:58:44;10.68;;;5.47;;
4527;SDS011;62320;51.520;6.818;2023-05-28T16:08:46;8.43;;;3.80;;
4527;SDS011;62320;51.520;6.818;2023-05-28T16:18:48;12.07;;;4.20;;
4527;SDS011;62320;51.520;6.818;2023-05-28T16:28:50;9.13;;;5.47;;
4527;SDS011;62320;51.520;6.818;2023-05-28T16:38:53;10.27;;;4.40;;
4527;SDS011;62320;51.520;6.818;2023-05-28T16:48:55;6.43;;;3.30;;
4527;SDS011;62320;51.520;6.818;2023-05-28T16:58:57;7.10;;;3.10;;
4527;SDS011;62320;51.520;6.818;2023-05-28T17:08:59;9.70;;;3.42;;
4527;SDS011;62320;51.520;6.818;2023-05-28T17:19:00;9.50;;;3.53;;
4527;SDS011;62320;51.520;6.818;2023-05-28T17:29:03;9.13;;;3.33;;
4527;SDS011;62320;51.520;6.818;2023-05-28T17:39:07;9.70;;;3.95;;
4527;SDS011;62320;51.520;6.818;2023-05-28T17:49:08;8.67;;;3.40;;
4527;SDS011;62320;51.520;6.818;2023-05-28T17:59:11;8.57;;;3.03;;
4527;SDS011;62320;51.520;6.818;2023-05-28T18:09:13;7.90;;;2.80;;
4527;SDS011;62320;51.520;6.818;2023-05-28T18:19:15;8.50;;;3.53;;
4527;SDS011;62320;51.520;6.818;2023-05-28T18:29:21;8.37;;;3.40;;
4527;SDS011;62320;51.520;6.818;2023-05-28T18:39:23;8.13;;;3.35;;
4527;SDS011;62320;51.520;6.818;2023-05-28T18:49:24;8.73;;;3.30;;
4527;SDS011;62320;51.520;6.818;2023-05-28T18:59:26;10.20;;;3.73;;
4527;SDS011;62320;51.520;6.818;2023-05-28T19:09:27;7.75;;;3.58;;
4527;SDS011;62320;51.520;6.818;2023-05-28T19:19:29;8.97;;;3.50;;
4527;SDS011;62320;51.520;6.818;2023-05-28T19:29:31;9.87;;;4.00;;
4527;SDS011;62320;51.520;6.818;2023-05-28T19:39:32;8.43;;;3.43;;
4527;SDS011;62320;51.520;6.818;2023-05-28T19:49:34;8.63;;;3.58;;
4527;SDS011;62320;51.520;6.818;2023-05-28T19:59:35;7.17;;;3.77;;
4527;SDS011;62320;51.520;6.818;2023-05-28T20:09:37;8.67;;;3.47;;
4527;SDS011;62320;51.520;6.818;2023-05-28T20:19:39;7.43;;;3.20;;
4527;SDS011;62320;51.520;6.818;2023-05-28T20:29:41;7.10;;;2.70;;
4527;SDS011;62320;51.520;6.818;2023-05-28T20:39:43;5.13;;;2.10;;
4527;SDS011;62320;51.520;6.818;2023-05-28T20:49:45;6.53;;;2.67;;
4527;SDS011;62320;51.520;6.818;2023-05-28T20:59:47;7.63;;;2.70;;
4527;SDS011;62320;51.520;6.818;2023-05-28T21:09:49;9.00;;;2.60;;
4527;SDS011;62320;51.520;6.818;2023-05-28T21:19:50;5.90;;;2.20;;
4527;SDS011;62320;51.520;6.818;2023-05-28T21:29:52;8.82;;;3.10;;
4527;SDS011;62320;51.520;6.818;2023-05-28T21:39:53;7.33;;;2.53;;
4527;SDS011;62320;51.520;6.818;2023-05-28T21:49:55;7.20;;;2.33;;
4527;SDS011;62320;51.520;6.818;2023-05-28T21:59:56;5.70;;;2.00;;
4527;SDS011;62320;51.520;6.818;2023-05-28T22:09:58;6.07;;;2.40;;
4527;SDS011;62320;51.520;6.818;2023-05-28T22:20:00;5.97;;;2.80;;
4527;SDS011;62320;51.520;6.818;2023-05-28T22:30:02;8.13;;;2.92;;
4527;SDS011;62320;51.520;6.818;2023-05-28T22:40:04;5.87;;;2.10;;
4527;SDS011;62320;51.520;6.818;2023-05-28T22:50:07;7.90;;;2.37;;
4527;SDS011;62320;51.520;6.818;2023-05-28T23:00:09;6.33;;;2.40;;
4527;SDS011;62320;51.520;6.818;2023-05-28T23:10:12;6.97;;;2.35;;
4527;SDS011;62320;51.520;6.818;2023-05-28T23:20:13;6.27;;;2.43;;
4527;SDS011;62320;51.520;6.818;2023-05-28T23:30:15;5.83;;;2.20;;
4527;SDS011;62320;51.520;6.818;2023-05-28T23:40:17;7.10;;;2.50;;
4527;SDS011;62320;51.520;6.818;2023-05-28T23:50:18;6.40;;;2.27;;
